createdAt,value
2022-11-28T00:01:28.066Z,57.45
2022-11-28T00:03:55.710Z,56.00
2022-11-28T00:06:23.341Z,52.20
2022-11-28T00:08:50.918Z,56.50
2022-11-28T00:11:18.580Z,60.13
2022-11-28T00:13:46.472Z,63.45
2022-11-28T00:16:17.216Z,70.85
2022-11-28T00:18:44.745Z,46.70
2022-11-28T00:21:14.494Z,46.60
2022-11-28T00:23:43.668Z,67.53
2022-11-28T00:26:18.603Z,54.00
2022-11-28T00:28:46.086Z,63.05
2022-11-28T00:31:19.551Z,60.92
2022-11-28T00:33:47.604Z,67.45
2022-11-28T00:36:15.346Z,51.90
2022-11-28T00:38:43.135Z,52.63
2022-11-28T00:41:22.799Z,51.92
2022-11-28T00:43:51.039Z,57.72
2022-11-28T00:46:19.655Z,56.22
2022-11-28T00:48:47.577Z,53.33
2022-11-28T00:51:18.395Z,42.30
2022-11-28T00:53:47.967Z,51.17
2022-11-28T00:56:19.178Z,49.38
2022-11-28T00:58:48.959Z,54.88
2022-11-28T01:01:20.126Z,61.55
2022-11-28T01:03:49.124Z,50.13
2022-11-28T01:06:32.270Z,66.78
2022-11-28T01:09:01.913Z,45.58
2022-11-28T01:11:30.190Z,51.17
2022-11-28T01:13:59.347Z,64.20
2022-11-28T01:16:28.062Z,44.72
2022-11-28T01:18:55.362Z,44.97
2022-11-28T01:21:22.737Z,41.03
2022-11-28T01:23:49.995Z,43.28
2022-11-28T01:26:28.758Z,54.65
2022-11-28T01:28:56.791Z,50.55
2022-11-28T01:31:26.264Z,45.97
2022-11-28T01:33:54.691Z,46.97
2022-11-28T01:36:22.736Z,45.08
2022-11-28T01:38:50.875Z,41.55
2022-11-28T01:41:22.129Z,55.40
2022-11-28T01:44:05.842Z,54.25
2022-11-28T01:46:34.187Z,42.58
2022-11-28T01:49:22.843Z,55.60
2022-11-28T01:51:54.541Z,41.28
2022-11-28T01:54:23.952Z,44.78
2022-11-28T01:56:58.724Z,44.72
2022-11-28T01:59:29.914Z,46.78
2022-11-28T02:01:57.206Z,60.03
2022-11-28T02:04:27.904Z,49.50
2022-11-28T02:06:55.615Z,44.05
2022-11-28T02:09:22.919Z,43.13
2022-11-28T02:12:08.933Z,44.45
2022-11-28T02:15:03.284Z,59.90
2022-11-28T02:17:55.543Z,57.08
2022-11-28T02:20:40.994Z,40.22
2022-11-28T02:23:08.181Z,42.53
2022-11-28T02:26:01.973Z,36.08
2022-11-28T02:28:35.207Z,49.67
2022-11-28T02:31:08.489Z,58.13
2022-11-28T02:33:58.432Z,39.83
2022-11-28T02:36:50.854Z,57.45
2022-11-28T02:39:52.515Z,38.90
2022-11-28T02:42:31.210Z,48.05
2022-11-28T02:45:13.188Z,52.55
2022-11-28T02:47:54.548Z,60.17
2022-11-28T02:50:37.156Z,51.28
2022-11-28T02:53:12.241Z,44.15
2022-11-28T02:55:41.235Z,53.60
2022-11-28T02:58:10.787Z,51.92
2022-11-28T03:00:39.973Z,40.35
2022-11-28T03:03:07.269Z,52.58
2022-11-28T03:06:07.918Z,51.42
2022-11-28T03:09:00.555Z,58.92
2022-11-28T03:11:50.024Z,35.17
2022-11-28T03:14:42.391Z,44.50
2022-11-28T03:17:34.665Z,49.05
2022-11-28T03:20:13.546Z,25.08
2022-11-28T03:22:43.197Z,32.63
2022-11-28T03:25:16.337Z,32.60
2022-11-28T03:27:49.258Z,43.97
2022-11-28T03:30:21.998Z,43.35
2022-11-28T03:32:53.316Z,62.70
2022-11-28T03:35:25.340Z,60.00
2022-11-28T03:37:58.786Z,40.47
2022-11-28T03:40:39.332Z,46.05
2022-11-28T03:43:11.684Z,37.05
2022-11-28T03:45:43.241Z,41.13
2022-11-28T03:48:15.225Z,51.15
2022-11-28T03:50:48.693Z,53.25
2022-11-28T03:53:26.041Z,47.47
2022-11-28T03:56:01.886Z,39.00
2022-11-28T03:58:39.010Z,56.65
2022-11-28T04:01:20.343Z,34.72
2022-11-28T04:03:53.816Z,46.15
2022-11-28T04:06:35.903Z,43.38
2022-11-28T04:09:12.981Z,59.42
2022-11-28T04:11:51.843Z,35.05
2022-11-28T04:14:32.639Z,39.70
2022-11-28T04:17:11.562Z,39.22
2022-11-28T04:19:43.718Z,42.03
2022-11-28T04:22:18.126Z,46.60
2022-11-28T04:25:10.078Z,29.17
2022-11-28T04:27:49.732Z,35.72
2022-11-28T04:30:17.199Z,53.63
2022-11-28T04:32:51.438Z,52.63
2022-11-28T04:35:28.772Z,50.83
2022-11-28T04:37:58.142Z,38.33
2022-11-28T04:40:27.487Z,44.30
2022-11-28T04:43:02.314Z,36.95
2022-11-28T04:45:38.222Z,30.67
2022-11-28T04:48:06.050Z,43.80
2022-11-28T04:51:14.253Z,38.60
2022-11-28T04:54:19.928Z,30.25
2022-11-28T04:56:55.849Z,44.38
2022-11-28T04:59:26.753Z,30.08
2022-11-28T05:01:55.861Z,40.33
2022-11-28T05:04:23.297Z,46.55
2022-11-28T05:06:50.613Z,27.05
2022-11-28T05:09:17.945Z,34.20
2022-11-28T05:11:45.309Z,37.20
2022-11-28T05:14:12.667Z,44.97
2022-11-28T05:16:40.073Z,25.92
2022-11-28T05:19:07.380Z,33.90
2022-11-28T05:21:34.723Z,45.60
2022-11-28T05:24:01.996Z,53.85
2022-11-28T05:26:32.228Z,42.80
2022-11-28T05:28:59.590Z,37.67
2022-11-28T05:31:26.946Z,40.50
2022-11-28T05:33:55.217Z,46.10
2022-11-28T05:36:23.143Z,67.47
2022-11-28T05:38:50.420Z,37.00
2022-11-28T05:41:31.526Z,39.13
2022-11-28T05:44:00.132Z,28.15
2022-11-28T05:46:28.905Z,47.15
2022-11-28T05:48:56.994Z,49.85
2022-11-28T05:51:24.828Z,36.13
2022-11-28T05:53:52.136Z,39.17
2022-11-28T05:56:20.692Z,47.60
2022-11-28T05:58:48.016Z,47.35
2022-11-28T06:01:24.356Z,42.38
2022-11-28T06:03:57.960Z,40.63
2022-11-28T06:06:26.966Z,35.50
2022-11-28T06:08:54.422Z,44.17
2022-11-28T06:11:24.072Z,37.65
2022-11-28T06:13:51.727Z,27.73
2022-11-28T06:16:24.602Z,38.60
2022-11-28T06:19:00.133Z,32.10
2022-11-28T06:21:28.954Z,47.00
2022-11-28T06:23:58.157Z,49.42
2022-11-28T06:26:27.863Z,28.08
2022-11-28T06:28:55.612Z,45.88
2022-11-28T06:31:25.698Z,35.47
2022-11-28T06:33:53.031Z,35.72
2022-11-28T06:36:20.961Z,24.25
2022-11-28T06:38:48.447Z,24.83
2022-11-28T06:41:18.302Z,34.03
2022-11-28T06:43:45.664Z,26.83
2022-11-28T06:46:19.099Z,38.38
2022-11-28T06:48:47.858Z,57.50
2022-11-28T06:51:16.128Z,43.55
2022-11-28T06:53:43.479Z,25.45
2022-11-28T06:56:14.152Z,43.17
2022-11-28T06:58:42.904Z,38.50
2022-11-28T07:01:13.655Z,43.58
2022-11-28T07:03:41.127Z,51.33
2022-11-28T07:06:08.758Z,39.35
2022-11-28T07:08:36.772Z,42.63
2022-11-28T07:11:25.508Z,36.05
2022-11-28T07:13:53.423Z,38.78
2022-11-28T07:16:26.554Z,52.40
2022-11-28T07:18:54.708Z,32.53
2022-11-28T07:21:22.487Z,31.17
2022-11-28T07:23:49.949Z,38.72
2022-11-28T07:26:19.251Z,34.20
2022-11-28T07:28:47.588Z,24.67
2022-11-28T07:31:25.609Z,42.78
2022-11-28T07:33:53.524Z,29.00
2022-11-28T07:36:23.361Z,24.73
2022-11-28T07:38:53.822Z,20.77
2022-11-28T07:41:26.259Z,22.48
2022-11-28T07:44:01.641Z,30.88
2022-11-28T07:46:31.029Z,38.08
2022-11-28T07:48:58.437Z,43.53
2022-11-28T07:51:28.624Z,27.35
2022-11-28T07:53:56.844Z,23.50
2022-11-28T07:56:35.143Z,22.58
2022-11-28T07:59:07.397Z,42.33
2022-11-28T08:01:35.988Z,32.25
2022-11-28T08:04:05.877Z,32.70
2022-11-28T08:06:37.073Z,26.75
2022-11-28T08:09:06.952Z,27.30
2022-11-28T08:11:35.125Z,22.25
2022-11-28T08:14:02.712Z,31.80
2022-11-28T08:16:30.692Z,37.88
2022-11-28T08:19:00.929Z,24.52
2022-11-28T08:21:31.198Z,44.42
2022-11-28T08:24:00.676Z,32.60
2022-11-28T08:26:31.173Z,34.08
2022-11-28T08:28:59.578Z,33.35
2022-11-28T08:31:30.504Z,26.92
2022-11-28T08:33:59.919Z,34.22
2022-11-28T08:36:29.203Z,28.40
2022-11-28T08:41:46.394Z,31.85
2022-11-28T08:44:13.881Z,31.30
2022-11-28T08:46:41.177Z,38.05
2022-11-28T08:49:08.509Z,27.60
2022-11-28T08:51:36.894Z,45.80
2022-11-28T08:54:04.336Z,41.47
2022-11-28T08:56:31.771Z,22.48
2022-11-28T08:59:00.044Z,34.22
2022-11-28T09:01:27.947Z,20.73
2022-11-28T09:03:56.268Z,46.30
2022-11-28T09:06:24.302Z,48.22
2022-11-28T09:08:52.345Z,31.05
2022-11-28T09:11:21.427Z,28.42
2022-11-28T09:13:49.097Z,29.50
2022-11-28T09:16:16.638Z,29.73
2022-11-28T09:18:43.954Z,30.40
2022-11-28T09:21:14.019Z,35.58
2022-11-28T09:23:42.848Z,25.35
2022-11-28T09:26:16.448Z,35.58
2022-11-28T09:28:44.476Z,33.03
2022-11-28T09:31:13.244Z,28.10
2022-11-28T09:33:40.999Z,29.95
2022-11-28T09:36:16.832Z,35.13
2022-11-28T09:38:44.552Z,26.85
2022-11-28T09:41:29.552Z,27.67
2022-11-28T09:44:08.073Z,24.88
2022-11-28T09:46:38.770Z,26.27
2022-11-28T09:49:25.624Z,33.10
2022-11-28T09:52:03.088Z,55.95
2022-11-28T09:54:52.069Z,39.08
2022-11-28T09:57:37.158Z,41.63
2022-11-28T10:00:06.179Z,35.08
2022-11-28T10:02:43.957Z,33.33
2022-11-28T10:05:24.790Z,26.05
2022-11-28T10:08:22.262Z,38.83
2022-11-28T10:11:10.443Z,38.67
2022-11-28T10:14:09.217Z,32.78
2022-11-28T10:16:33.771Z,34.28
2022-11-28T10:19:05.943Z,21.90
2022-11-28T10:21:44.661Z,30.75
2022-11-28T10:24:18.202Z,33.40
2022-11-28T10:26:53.474Z,29.73
2022-11-28T10:29:38.055Z,36.55
2022-11-28T10:32:06.541Z,36.13
2022-11-28T10:34:51.507Z,28.17
2022-11-28T10:37:26.549Z,32.10
2022-11-28T10:39:55.042Z,30.27
2022-11-28T10:42:40.242Z,26.83
2022-11-28T10:45:48.824Z,23.73
2022-11-28T10:48:39.544Z,9.80
2022-11-28T10:51:44.912Z,17.58
2022-11-28T10:54:40.737Z,16.65
2022-11-28T10:57:25.967Z,24.75
2022-11-28T11:00:18.228Z,19.20
2022-11-28T11:02:51.736Z,16.48
2022-11-28T11:05:34.819Z,12.57
2022-11-28T11:08:28.383Z,22.35
2022-11-28T11:11:07.766Z,11.02
2022-11-28T11:14:00.159Z,15.43
2022-11-28T11:16:47.531Z,11.38
2022-11-28T11:19:39.609Z,19.85
2022-11-28T11:22:12.438Z,6.90
2022-11-28T11:24:39.652Z,6.00
2022-11-28T11:27:21.924Z,11.15
2022-11-28T11:29:51.716Z,7.43
2022-11-28T11:32:30.309Z,16.17
2022-11-28T11:34:59.686Z,15.40
2022-11-28T11:37:34.665Z,10.45
2022-11-28T11:40:04.029Z,6.55
2022-11-28T11:42:32.981Z,12.65
2022-11-28T11:45:30.812Z,12.23
2022-11-28T11:47:58.548Z,8.13
2022-11-28T11:50:28.460Z,11.13
2022-11-28T11:53:12.709Z,5.78
2022-11-28T11:55:52.976Z,6.13
2022-11-28T11:58:24.139Z,15.07
2022-11-28T12:00:56.214Z,7.97
2022-11-28T12:03:40.845Z,8.60
2022-11-28T12:06:20.683Z,14.13
2022-11-28T12:08:54.368Z,8.93
2022-11-28T12:11:47.196Z,8.68
2022-11-28T12:14:32.173Z,11.82
2022-11-28T12:17:47.266Z,15.30
2022-11-28T12:20:33.162Z,13.95
2022-11-28T12:23:40.162Z,10.65
2022-11-28T12:26:35.581Z,12.30
2022-11-28T12:29:29.574Z,15.23
2022-11-28T12:32:38.421Z,15.35
2022-11-28T12:35:23.688Z,10.20
2022-11-28T12:38:11.677Z,10.73
2022-11-28T12:41:09.310Z,13.25
2022-11-28T12:44:06.106Z,16.02
2022-11-28T12:46:58.482Z,12.70
2022-11-28T12:49:45.889Z,6.72
2022-11-28T12:52:56.234Z,20.23
2022-11-28T12:55:43.937Z,14.68
2022-11-28T13:01:03.232Z,14.77
2022-11-28T13:04:02.281Z,12.05
2022-11-28T13:07:11.566Z,10.80
2022-11-28T13:09:46.443Z,10.63
2022-11-28T13:12:28.745Z,7.30
2022-11-28T13:15:03.309Z,19.90
2022-11-28T13:17:48.453Z,12.55
2022-11-28T13:20:42.994Z,14.80
2022-11-28T13:23:51.120Z,17.58
2022-11-28T13:26:52.533Z,18.77
2022-11-28T13:29:33.120Z,17.67
2022-11-28T13:32:09.168Z,19.98
2022-11-28T13:34:37.270Z,16.05
2022-11-28T13:40:54.703Z,10.70
2022-11-28T13:43:37.636Z,19.58
2022-11-28T13:46:08.204Z,11.98
2022-11-28T13:51:33.864Z,20.05
2022-11-28T13:54:19.900Z,14.60
2022-11-28T13:57:04.631Z,11.00
2022-11-28T13:59:33.057Z,17.23
2022-11-28T14:02:03.585Z,7.32
2022-11-28T14:04:32.764Z,16.17
2022-11-28T14:07:06.691Z,11.02
2022-11-28T14:09:57.104Z,4.45
2022-11-28T14:12:59.208Z,20.95
2022-11-28T14:15:38.382Z,11.88
2022-11-28T14:18:24.731Z,7.75
2022-11-28T14:21:05.371Z,23.35
2022-11-28T14:23:46.276Z,19.13
2022-11-28T14:26:27.040Z,9.52
2022-11-28T14:28:54.746Z,9.48
2022-11-28T14:31:40.081Z,17.60
2022-11-28T14:34:45.334Z,12.25
2022-11-28T14:37:26.037Z,12.93
2022-11-28T14:39:55.172Z,12.80
2022-11-28T14:42:58.281Z,11.88
2022-11-28T14:45:31.655Z,10.38
2022-11-28T14:48:23.851Z,15.00
2022-11-28T14:50:59.428Z,15.50
2022-11-28T14:53:52.914Z,10.90
2022-11-28T14:56:27.918Z,12.15
2022-11-28T14:59:01.951Z,12.68
2022-11-28T15:01:55.710Z,7.28
2022-11-28T15:04:35.940Z,8.63
2022-11-28T15:07:07.785Z,22.75
2022-11-28T15:10:16.535Z,18.23
2022-11-28T15:13:21.353Z,13.23
2022-11-28T15:15:53.405Z,7.28
2022-11-28T15:18:23.245Z,12.43
2022-11-28T15:20:58.680Z,25.77
2022-11-28T15:23:30.413Z,19.27
2022-11-28T15:25:59.395Z,27.70
2022-11-28T15:28:29.136Z,32.03
2022-11-28T15:30:58.719Z,38.35
2022-11-28T15:33:27.396Z,28.58
2022-11-28T15:36:00.049Z,35.00
2022-11-28T15:38:30.789Z,30.08
2022-11-28T15:40:59.956Z,28.98
2022-11-28T15:43:27.924Z,41.60
2022-11-28T15:46:00.280Z,19.40
2022-11-28T15:48:39.740Z,25.10
2022-11-28T15:51:08.827Z,24.40
2022-11-28T15:53:42.272Z,16.58
2022-11-28T15:56:15.100Z,26.52
2022-11-28T15:58:44.404Z,14.50
2022-11-28T16:01:18.799Z,12.63
2022-11-28T16:04:06.949Z,14.93
2022-11-28T16:06:39.858Z,17.27
2022-11-28T16:09:19.382Z,16.05
2022-11-28T16:11:52.368Z,16.05
2022-11-28T16:14:32.860Z,16.90
2022-11-28T16:17:14.714Z,12.55
2022-11-28T16:19:43.548Z,23.45
2022-11-28T16:22:17.244Z,15.18
2022-11-28T16:24:47.526Z,15.85
2022-11-28T16:27:30.261Z,18.45
2022-11-28T16:29:57.710Z,12.68
2022-11-28T16:32:39.684Z,12.02
2022-11-28T16:35:12.296Z,11.95
2022-11-28T16:37:39.682Z,24.80
2022-11-28T16:40:14.943Z,43.85
2022-11-28T16:42:42.445Z,46.20
2022-11-28T16:45:22.074Z,23.02
2022-11-28T16:48:08.605Z,17.77
2022-11-28T16:50:37.013Z,15.30
2022-11-28T16:53:05.006Z,23.70
2022-11-28T16:55:32.422Z,18.75
2022-11-28T16:58:10.378Z,15.82
2022-11-28T17:00:42.358Z,26.80
2022-11-28T17:03:40.474Z,33.22
2022-11-28T17:06:28.475Z,17.88
2022-11-28T17:08:56.454Z,10.32
2022-11-28T17:11:28.531Z,19.33
2022-11-28T17:13:57.659Z,26.95
2022-11-28T17:16:27.583Z,32.83
2022-11-28T17:18:54.964Z,18.48
2022-11-28T17:21:48.482Z,22.10
2022-11-28T17:24:18.963Z,19.25
2022-11-28T17:26:46.940Z,30.67
2022-11-28T17:29:15.655Z,19.40
2022-11-28T17:31:46.766Z,25.38
2022-11-28T17:34:19.399Z,20.13
2022-11-28T17:36:47.829Z,25.50
2022-11-28T17:39:16.164Z,18.83
2022-11-28T17:41:44.485Z,26.77
2022-11-28T17:44:21.137Z,24.10
2022-11-28T17:46:50.310Z,22.13
2022-11-28T17:49:19.356Z,27.70
2022-11-28T17:51:46.784Z,40.00
2022-11-28T17:54:17.680Z,37.47
2022-11-28T17:56:46.285Z,47.85
2022-11-28T17:59:14.741Z,19.45
2022-11-28T18:01:44.159Z,23.88
2022-11-28T18:04:11.920Z,11.35
2022-11-28T18:06:39.215Z,14.82
2022-11-28T18:09:11.574Z,20.10
2022-11-28T18:11:41.491Z,15.23
2022-11-28T18:14:09.832Z,17.60
2022-11-28T18:16:39.633Z,9.43
2022-11-28T18:19:07.275Z,18.63
2022-11-28T18:21:34.614Z,14.63
2022-11-28T18:24:01.928Z,17.80
2022-11-28T18:26:30.561Z,17.90
2022-11-28T18:28:58.766Z,12.57
2022-11-28T18:31:28.753Z,11.02
2022-11-28T18:34:02.073Z,12.65
2022-11-28T18:36:35.533Z,16.42
2022-11-28T18:39:09.022Z,14.70
2022-11-28T18:41:36.762Z,12.10
2022-11-28T18:44:05.378Z,17.27
2022-11-28T18:46:33.963Z,10.25
2022-11-28T18:49:01.680Z,15.77
2022-11-28T18:51:34.385Z,6.75
2022-11-28T18:54:05.625Z,9.65
2022-11-28T18:56:34.969Z,13.63
2022-11-28T18:59:02.533Z,10.82
2022-11-28T19:01:34.431Z,7.65
2022-11-28T19:04:07.683Z,14.00
2022-11-28T19:06:37.507Z,11.45
2022-11-28T19:09:07.632Z,6.53
2022-11-28T19:11:35.747Z,8.73
2022-11-28T19:14:04.230Z,10.35
2022-11-28T19:16:33.610Z,13.80
2022-11-28T19:19:02.701Z,15.23
2022-11-28T19:21:32.799Z,9.55
2022-11-28T19:24:03.234Z,17.55
2022-11-28T19:26:31.453Z,6.95
2022-11-28T19:29:01.585Z,19.13
2022-11-28T19:31:31.820Z,10.52
2022-11-28T19:34:07.124Z,11.80
2022-11-28T19:36:39.359Z,14.52
2022-11-28T19:39:08.220Z,10.20
2022-11-28T19:41:35.725Z,13.57
2022-11-28T19:44:03.093Z,13.05
2022-11-28T19:46:35.506Z,11.25
2022-11-28T19:49:11.241Z,14.07
2022-11-28T19:51:38.568Z,12.35
2022-11-28T19:54:06.399Z,15.15
2022-11-28T19:56:34.060Z,16.85
2022-11-28T19:59:02.438Z,15.13
2022-11-28T20:01:29.937Z,16.20
2022-11-28T20:03:59.234Z,27.40
2022-11-28T20:06:30.253Z,27.67
2022-11-28T20:09:08.727Z,25.13
2022-11-28T20:11:40.575Z,26.70
2022-11-28T20:14:15.772Z,42.58
2022-11-28T20:16:43.781Z,26.13
2022-11-28T20:19:14.161Z,15.20
2022-11-28T20:21:42.390Z,14.43
2022-11-28T20:24:10.722Z,8.98
2022-11-28T20:26:41.901Z,14.93
2022-11-28T20:29:13.873Z,16.50
2022-11-28T20:31:45.358Z,20.70
2022-11-28T20:34:17.103Z,15.68
2022-11-28T20:36:45.560Z,12.07
2022-11-28T20:39:13.708Z,11.88
2022-11-28T20:41:41.061Z,18.58
2022-11-28T20:44:09.235Z,15.45
2022-11-28T20:46:36.547Z,17.20
2022-11-28T20:49:06.833Z,16.30
2022-11-28T20:51:35.744Z,21.60
2022-11-28T20:54:04.919Z,21.13
2022-11-28T20:56:51.557Z,31.73
2022-11-28T20:59:22.626Z,18.50
2022-11-28T21:01:50.050Z,19.35
2022-11-28T21:04:18.356Z,22.50
2022-11-28T21:06:47.236Z,29.80
2022-11-28T21:09:15.406Z,22.58
2022-11-28T21:11:59.396Z,15.40
2022-11-28T21:14:28.736Z,22.33
2022-11-28T21:16:56.907Z,27.30
2022-11-28T21:19:24.451Z,27.83
2022-11-28T21:21:51.951Z,17.45
2022-11-28T21:24:19.246Z,17.40
2022-11-28T21:26:52.969Z,22.60
2022-11-28T21:29:21.844Z,21.38
2022-11-28T21:31:49.265Z,14.55
2022-11-28T21:34:17.621Z,27.67
2022-11-28T21:36:45.248Z,22.27
2022-11-28T21:39:15.322Z,19.17
2022-11-28T21:41:42.838Z,18.08
2022-11-28T21:44:10.098Z,17.52
2022-11-28T21:46:37.585Z,22.67
2022-11-28T21:49:05.592Z,24.13
2022-11-28T21:51:35.920Z,18.25
2022-11-28T21:54:03.502Z,27.88
2022-11-28T21:56:31.806Z,20.02
2022-11-28T21:58:59.201Z,22.92
2022-11-28T22:01:26.569Z,25.27
2022-11-28T22:03:59.017Z,20.73
2022-11-28T22:06:29.829Z,24.35
2022-11-28T22:08:57.902Z,22.70
2022-11-28T22:11:25.620Z,23.83
2022-11-28T22:13:53.007Z,30.42
2022-11-28T22:16:23.630Z,20.40
2022-11-28T22:18:53.598Z,26.50
2022-11-28T22:21:50.433Z,22.48
2022-11-28T22:24:09.114Z,20.90
2022-11-28T22:26:36.704Z,20.42
2022-11-28T22:29:04.516Z,24.05
2022-11-28T22:31:33.012Z,24.80
2022-11-28T22:34:00.416Z,23.27
2022-11-28T22:36:28.809Z,27.30
2022-11-28T22:38:58.937Z,23.70
2022-11-28T22:41:29.349Z,31.77
2022-11-28T22:44:01.162Z,26.25
2022-11-28T22:46:30.799Z,28.40
2022-11-28T22:49:00.783Z,26.05
2022-11-28T22:51:29.417Z,27.92
2022-11-28T22:53:59.430Z,28.38
2022-11-28T22:56:29.079Z,22.00
2022-11-28T22:58:58.745Z,26.13
2022-11-28T23:01:30.103Z,33.58
2022-11-28T23:03:57.773Z,23.92
2022-11-28T23:06:30.004Z,27.83
2022-11-28T23:08:59.090Z,27.00
2022-11-28T23:11:30.859Z,29.73
2022-11-28T23:14:00.534Z,27.90
2022-11-28T23:16:33.506Z,28.58
2022-11-28T23:19:04.169Z,24.65
2022-11-28T23:21:35.708Z,25.52
2022-11-28T23:24:05.632Z,28.33
2022-11-28T23:26:34.260Z,23.10
2022-11-28T23:29:04.538Z,29.27
2022-11-28T23:31:34.090Z,23.02
2022-11-28T23:34:02.231Z,23.98
2022-11-28T23:36:36.992Z,33.00
2022-11-28T23:39:11.647Z,31.80
2022-11-28T23:41:38.940Z,27.63
2022-11-28T23:44:06.340Z,21.73
2022-11-28T23:46:34.543Z,33.95
2022-11-28T23:49:01.878Z,47.25
2022-11-28T23:51:29.207Z,46.42
2022-11-28T23:53:56.469Z,36.97
2022-11-28T23:56:26.232Z,38.55
2022-11-28T23:58:55.508Z,40.25
